METAR AND TAF INFORMATION
METAR FOR LICG
ADDS - METARS form results

(0415 UTC 07 April 2020)
Data provider http://aviationweather.gov/metar/data/
 
Forecast for: LICG (PANTELLERIA(IT-A, IT)
Text: TAF LICG 061700Z 0618/0703 30010KT 6000 FEW020
Forecast period: 1800 UTC 06 April 2020 to 0300 UTC 07 April 2020
Forecast type: FROM: standard forecast or significant change
Winds: from the WNW (300 degrees) at 12 MPH (10 knots; 5.1 m/s)
Visibility: 4 miles (6 km)
Ceiling: at least 12,000 feet AGL
Clouds: few clouds at 2000 feet AGL
Weather: no significant weather forecast for this period

 AIRPORT MAP

 RUNWAY INFORMATION
Runway 03 Runway length 4003 ft Runway width 98 ft
Runway elevation 620 ft Runway displaced threshold 0 ft Runway heading 28
Runway 21 Runway length 4003 ft Runway width 98 ft
Runway elevation 591 ft Runway displaced threshold 0 ft Runway heading 208
Runway 08 Runway length 5495 ft Runway width 148 ft
Runway elevation 635 ft Runway displaced threshold 0 ft Runway heading 76
Runway 26 Runway length 5495 ft Runway width 148 ft
Runway elevation 603 ft Runway displaced threshold 0 ft Runway heading 256

 AIRPORT FREQUENCIES
Type TWR Name TWR Frequency 118.45 MHZ

 AIRPORT NEAR NAVIGATION AIDS
Type VOR-DME Name Pantelleria Frequency 116100 KHZ
Type NDB Name Pantelleria Frequency 335 KHZ



Powered by Virtual Airlines Manager [v2.6.2]